createdAt,value
2023-05-21T00:01:48.675Z,100932.67
2023-05-21T00:04:18.134Z,100933.01
2023-05-21T00:06:46.124Z,100931.73
2023-05-21T00:09:14.089Z,100930.77
2023-05-21T00:11:42.031Z,100929.70
2023-05-21T00:14:10.174Z,100927.00
2023-05-21T00:16:38.389Z,100927.48
2023-05-21T00:19:06.668Z,100925.75
2023-05-21T00:21:34.523Z,100931.02
2023-05-21T00:24:02.632Z,100927.16
2023-05-21T00:26:30.610Z,100927.52
2023-05-21T00:28:58.660Z,100925.18
2023-05-21T00:31:27.021Z,100925.67
2023-05-21T00:33:54.791Z,100923.84
2023-05-21T00:36:24.272Z,100926.64
2023-05-21T00:38:52.322Z,100929.27
2023-05-21T00:41:20.416Z,100926.22
2023-05-21T00:43:48.307Z,100925.71
2023-05-21T00:46:19.782Z,100921.40
2023-05-21T00:48:48.458Z,100926.83
2023-05-21T00:51:18.597Z,100929.27
2023-05-21T00:53:49.612Z,100926.50
2023-05-21T00:56:17.698Z,100925.59
2023-05-21T00:58:45.573Z,100925.19
2023-05-21T01:01:14.205Z,100927.52
2023-05-21T01:03:42.445Z,100925.36
2023-05-21T01:06:11.414Z,100929.72
2023-05-21T01:08:41.062Z,100928.52
2023-05-21T01:11:09.965Z,100926.10
2023-05-21T01:13:39.962Z,100921.91
2023-05-21T01:16:09.345Z,100918.27
2023-05-21T01:18:38.244Z,100919.25
2023-05-21T01:21:07.760Z,100914.27
2023-05-21T01:23:36.151Z,100911.58
2023-05-21T01:26:04.007Z,100910.09
2023-05-21T01:28:34.817Z,100910.90
2023-05-21T01:31:16.996Z,100908.39
2023-05-21T01:33:49.398Z,100905.37
2023-05-21T01:36:26.956Z,100904.73
2023-05-21T01:39:09.027Z,100906.61
2023-05-21T01:41:39.213Z,100900.78
2023-05-21T01:44:07.402Z,100897.06
2023-05-21T01:46:36.801Z,100897.66
2023-05-21T01:49:06.459Z,100898.98
2023-05-21T01:51:35.000Z,100900.36
2023-05-21T01:54:02.911Z,100905.25
2023-05-21T01:56:34.124Z,100905.48
2023-05-21T01:59:02.208Z,100903.18
2023-05-21T02:01:30.509Z,100903.97
2023-05-21T02:03:59.337Z,100902.18
2023-05-21T02:06:27.304Z,100898.40
2023-05-21T02:08:55.827Z,100897.59
2023-05-21T02:11:24.111Z,100895.27
2023-05-21T02:13:52.460Z,100897.66
2023-05-21T02:16:22.460Z,100897.17
2023-05-21T02:18:57.614Z,100897.00
2023-05-21T02:21:25.794Z,100894.92
2023-05-21T02:23:53.973Z,100890.45
2023-05-21T02:26:23.063Z,100890.84
2023-05-21T02:28:55.525Z,100893.27
2023-05-21T02:31:23.722Z,100891.90
2023-05-21T02:33:51.776Z,100892.98
2023-05-21T02:36:19.716Z,100887.86
2023-05-21T02:38:48.322Z,100887.52
2023-05-21T02:41:16.130Z,100885.69
2023-05-21T02:43:44.091Z,100884.11
2023-05-21T02:46:12.097Z,100883.73
2023-05-21T02:48:39.987Z,100883.95
2023-05-21T02:51:07.956Z,100878.20
2023-05-21T02:53:35.803Z,100878.88
2023-05-21T02:56:04.047Z,100878.02
2023-05-21T02:58:32.211Z,100879.13
2023-05-21T03:01:00.416Z,100879.23
2023-05-21T03:03:28.546Z,100872.73
2023-05-21T03:05:56.581Z,100871.98
2023-05-21T03:08:24.917Z,100870.09
2023-05-21T03:10:52.912Z,100871.77
2023-05-21T03:13:21.576Z,100873.58
2023-05-21T03:15:49.929Z,100869.90
2023-05-21T03:18:17.985Z,100868.08
2023-05-21T03:20:45.762Z,100869.32
2023-05-21T03:23:16.492Z,100873.38
2023-05-21T03:25:46.198Z,100873.88
2023-05-21T03:28:14.799Z,100870.87
2023-05-21T03:30:46.595Z,100869.11
2023-05-21T03:33:14.600Z,100870.45
2023-05-21T03:35:42.523Z,100871.27
2023-05-21T03:38:10.540Z,100869.15
2023-05-21T03:40:38.408Z,100868.90
2023-05-21T03:43:06.105Z,100866.64
2023-05-21T03:45:34.272Z,100864.84
2023-05-21T03:48:02.181Z,100872.34
2023-05-21T03:50:30.045Z,100873.05
2023-05-21T03:52:57.866Z,100875.82
2023-05-21T03:55:29.560Z,100877.46
2023-05-21T03:57:57.531Z,100877.70
2023-05-21T04:00:25.536Z,100876.30
2023-05-21T04:02:55.505Z,100872.86
2023-05-21T04:05:23.628Z,100874.67
2023-05-21T04:07:51.651Z,100880.75
2023-05-21T04:10:19.508Z,100876.73
2023-05-21T04:12:49.359Z,100879.47
2023-05-21T04:15:18.721Z,100880.35
2023-05-21T04:17:47.182Z,100881.02
2023-05-21T04:20:17.107Z,100881.67
2023-05-21T04:22:45.117Z,100879.10
2023-05-21T04:25:13.062Z,100879.39
2023-05-21T04:27:42.782Z,100878.17
2023-05-21T04:30:11.424Z,100878.50
2023-05-21T04:32:39.512Z,100878.07
2023-05-21T04:35:07.864Z,100872.64
2023-05-21T04:37:36.474Z,100870.86
2023-05-21T04:40:04.855Z,100874.84
2023-05-21T04:42:33.184Z,100875.29
2023-05-21T04:45:01.387Z,100874.10
2023-05-21T04:47:30.566Z,100876.77
2023-05-21T04:50:02.630Z,100874.70
2023-05-21T04:52:31.464Z,100876.61
2023-05-21T04:54:59.293Z,100873.19
2023-05-21T04:57:28.536Z,100873.83
2023-05-21T04:59:58.036Z,100874.73
2023-05-21T05:02:25.980Z,100876.52
2023-05-21T05:04:54.051Z,100878.08
2023-05-21T05:07:22.860Z,100881.70
2023-05-21T05:09:50.797Z,100877.98
2023-05-21T05:12:18.907Z,100880.15
2023-05-21T05:14:47.123Z,100880.11
2023-05-21T05:17:14.943Z,100877.25
2023-05-21T05:19:42.959Z,100870.27
2023-05-21T05:22:13.417Z,100872.27
2023-05-21T05:24:42.048Z,100875.00
2023-05-21T05:27:09.970Z,100870.23
2023-05-21T05:29:38.231Z,100867.61
2023-05-21T05:32:06.496Z,100865.12
2023-05-21T05:34:34.583Z,100863.31
2023-05-21T05:37:03.063Z,100862.23
2023-05-21T05:39:30.944Z,100865.13
2023-05-21T05:41:58.980Z,100862.02
2023-05-21T05:44:27.051Z,100864.20
2023-05-21T05:46:54.828Z,100857.92
2023-05-21T05:49:23.050Z,100858.64
2023-05-21T05:51:51.173Z,100851.14
2023-05-21T05:54:19.671Z,100849.98
2023-05-21T05:56:47.556Z,100848.02
2023-05-21T05:59:16.594Z,100852.11
2023-05-21T06:01:44.496Z,100851.38
2023-05-21T06:04:12.427Z,100853.42
2023-05-21T06:06:40.348Z,100849.77
2023-05-21T06:09:08.504Z,100851.05
2023-05-21T06:11:36.439Z,100850.73
2023-05-21T06:14:04.482Z,100845.54
2023-05-21T06:16:32.654Z,100846.42
2023-05-21T06:19:01.032Z,100845.35
2023-05-21T06:21:29.102Z,100839.10
2023-05-21T06:23:56.982Z,100839.66
2023-05-21T06:26:24.894Z,100838.93
2023-05-21T06:28:53.012Z,100840.45
2023-05-21T06:31:22.513Z,100841.60
2023-05-21T06:33:50.713Z,100836.35
2023-05-21T06:36:18.928Z,100839.70
2023-05-21T06:38:48.155Z,100840.47
2023-05-21T06:41:16.286Z,100837.23
2023-05-21T06:43:44.149Z,100836.35
2023-05-21T06:46:12.046Z,100841.30
2023-05-21T06:48:39.935Z,100840.23
2023-05-21T06:51:07.913Z,100840.77
2023-05-21T06:53:35.808Z,100841.52
2023-05-21T06:56:03.990Z,100841.39
2023-05-21T06:58:31.782Z,100839.17
2023-05-21T07:00:59.866Z,100831.86
2023-05-21T07:03:28.041Z,100836.84
2023-05-21T07:05:57.811Z,100828.89
2023-05-21T07:08:25.719Z,100825.39
2023-05-21T07:10:53.781Z,100822.36
2023-05-21T07:13:22.224Z,100824.66
2023-05-21T07:15:50.433Z,100822.81
2023-05-21T07:18:19.269Z,100821.50
2023-05-21T07:20:47.592Z,100815.30
2023-05-21T07:23:15.850Z,100813.52
2023-05-21T07:25:43.782Z,100816.15
2023-05-21T07:28:11.722Z,100817.80
2023-05-21T07:30:39.736Z,100817.48
2023-05-21T07:33:08.165Z,100818.86
2023-05-21T07:35:36.538Z,100814.09
2023-05-21T07:38:04.982Z,100811.52
2023-05-21T07:40:32.769Z,100813.55
2023-05-21T07:43:01.154Z,100809.14
2023-05-21T07:45:29.041Z,100813.34
2023-05-21T07:47:56.901Z,100812.66
2023-05-21T07:50:25.850Z,100812.21
2023-05-21T07:52:53.979Z,100813.73
2023-05-21T07:55:21.970Z,100810.64
2023-05-21T07:57:52.540Z,100807.09
2023-05-21T08:00:24.238Z,100807.34
2023-05-21T08:02:52.637Z,100807.11
2023-05-21T08:05:21.692Z,100808.70
2023-05-21T08:07:49.833Z,100810.34
2023-05-21T08:10:19.485Z,100808.69
2023-05-21T08:12:47.534Z,100808.92
2023-05-21T08:15:15.488Z,100807.13
2023-05-21T08:17:43.573Z,100804.83
2023-05-21T08:20:13.665Z,100806.66
2023-05-21T08:22:41.633Z,100801.98
2023-05-21T08:25:09.990Z,100799.91
2023-05-21T08:27:38.345Z,100802.50
2023-05-21T08:30:06.895Z,100797.62
2023-05-21T08:32:34.807Z,100793.47
2023-05-21T08:35:02.983Z,100795.69
2023-05-21T08:37:30.983Z,100796.08
2023-05-21T08:39:58.941Z,100796.83
2023-05-21T08:42:37.049Z,100793.83
2023-05-21T08:45:07.327Z,100796.32
2023-05-21T08:47:37.301Z,100795.27
2023-05-21T08:50:05.669Z,100790.25
2023-05-21T08:52:33.571Z,100790.71
2023-05-21T08:55:03.733Z,100787.98
2023-05-21T08:57:31.997Z,100785.95
2023-05-21T09:00:00.338Z,100781.27
2023-05-21T09:02:30.890Z,100785.20
2023-05-21T09:04:59.521Z,100788.89
2023-05-21T09:07:29.346Z,100788.61
2023-05-21T09:09:59.024Z,100790.94
2023-05-21T09:12:28.298Z,100791.10
2023-05-21T09:14:58.599Z,100793.06
2023-05-21T09:17:26.428Z,100789.82
2023-05-21T09:20:14.867Z,100791.95
2023-05-21T09:22:50.092Z,100791.58
2023-05-21T09:25:22.125Z,100790.48
2023-05-21T09:27:49.917Z,100783.45
2023-05-21T09:30:21.865Z,100782.53
2023-05-21T09:32:57.645Z,100780.08
2023-05-21T09:35:25.892Z,100779.39
2023-05-21T09:37:54.158Z,100775.89
2023-05-21T09:40:23.780Z,100778.43
2023-05-21T09:42:55.435Z,100776.05
2023-05-21T09:45:27.232Z,100774.05
2023-05-21T09:47:56.450Z,100772.73
2023-05-21T09:50:28.318Z,100778.11
2023-05-21T09:52:56.448Z,100773.05
2023-05-21T09:55:26.554Z,100765.12
2023-05-21T09:57:54.961Z,100768.29
2023-05-21T10:00:28.178Z,100762.60
2023-05-21T10:03:01.673Z,100760.82
2023-05-21T10:05:30.618Z,100759.99
2023-05-21T10:08:03.633Z,100756.42
2023-05-21T10:10:32.769Z,100756.36
2023-05-21T10:13:07.381Z,100756.58
2023-05-21T10:15:41.255Z,100756.65
2023-05-21T10:18:10.548Z,100751.30
2023-05-21T10:20:39.229Z,100749.22
2023-05-21T10:23:07.949Z,100741.63
2023-05-21T10:25:36.427Z,100739.45
2023-05-21T10:28:04.837Z,100739.91
2023-05-21T10:30:33.111Z,100740.58
2023-05-21T10:33:02.396Z,100741.60
2023-05-21T10:35:30.995Z,100740.25
2023-05-21T10:37:59.394Z,100738.63
2023-05-21T10:40:27.354Z,100731.38
2023-05-21T10:43:14.862Z,100735.36
2023-05-21T10:45:47.975Z,100724.88
2023-05-21T10:49:06.864Z,100723.10
2023-05-21T10:51:39.957Z,100718.98
2023-05-21T10:54:26.740Z,100719.45
2023-05-21T10:57:18.147Z,100720.10
2023-05-21T10:59:47.562Z,100722.95
2023-05-21T11:02:16.608Z,100716.06
2023-05-21T11:04:45.437Z,100714.06
2023-05-21T11:07:13.554Z,100716.98
2023-05-21T11:09:42.028Z,100714.39
2023-05-21T11:12:10.547Z,100707.48
2023-05-21T11:14:40.363Z,100709.46
2023-05-21T11:17:36.429Z,100715.23
2023-05-21T11:20:08.126Z,100712.20
2023-05-21T11:22:36.600Z,100707.93
2023-05-21T11:25:05.262Z,100704.59
2023-05-21T11:27:37.192Z,100702.40
2023-05-21T11:30:09.577Z,100704.61
2023-05-21T11:33:01.700Z,100700.79
2023-05-21T11:35:29.763Z,100697.96
2023-05-21T11:37:57.653Z,100701.00
2023-05-21T11:40:26.710Z,100698.85
2023-05-21T11:42:56.207Z,100696.27
2023-05-21T11:45:30.847Z,100694.58
2023-05-21T11:47:58.984Z,100686.59
2023-05-21T11:50:27.496Z,100685.13
2023-05-21T11:52:56.276Z,100680.74
2023-05-21T11:55:26.145Z,100679.93
2023-05-21T11:57:55.442Z,100677.80
2023-05-21T12:00:23.585Z,100679.91
2023-05-21T12:02:52.674Z,100680.36
2023-05-21T12:05:21.620Z,100676.74
2023-05-21T12:07:52.537Z,100674.40
2023-05-21T12:10:22.346Z,100675.24
2023-05-21T12:12:54.961Z,100675.86
2023-05-21T12:15:26.595Z,100670.89
2023-05-21T12:17:55.237Z,100667.49
2023-05-21T12:20:23.907Z,100675.48
2023-05-21T12:22:52.039Z,100677.02
2023-05-21T12:25:21.142Z,100679.70
2023-05-21T12:27:52.875Z,100677.02
2023-05-21T12:30:21.329Z,100673.82
2023-05-21T12:32:49.349Z,100670.85
2023-05-21T12:35:24.301Z,100669.34
2023-05-21T12:37:52.807Z,100671.84
2023-05-21T12:40:21.187Z,100672.69
2023-05-21T12:42:49.722Z,100667.41
2023-05-21T12:45:18.976Z,100663.77
2023-05-21T12:47:56.059Z,100666.09
2023-05-21T12:50:24.597Z,100667.86
2023-05-21T12:52:56.145Z,100669.02
2023-05-21T12:55:26.481Z,100666.28
2023-05-21T12:58:08.654Z,100664.02
2023-05-21T13:00:37.395Z,100663.60
2023-05-21T13:03:06.953Z,100663.30
2023-05-21T13:05:35.864Z,100659.97
2023-05-21T13:08:03.965Z,100655.59
2023-05-21T13:10:31.839Z,100656.73
2023-05-21T13:13:00.417Z,100662.02
2023-05-21T13:15:28.411Z,100660.31
2023-05-21T13:17:57.722Z,100661.58
2023-05-21T13:20:27.853Z,100663.30
2023-05-21T13:22:56.294Z,100662.83
2023-05-21T13:25:32.738Z,100658.89
2023-05-21T13:28:03.187Z,100659.44
2023-05-21T13:30:31.483Z,100651.20
2023-05-21T13:32:59.702Z,100645.94
2023-05-21T13:35:27.484Z,100651.08
2023-05-21T13:37:55.553Z,100651.35
2023-05-21T13:40:24.189Z,100644.01
2023-05-21T13:42:52.116Z,100643.52
2023-05-21T13:45:20.960Z,100643.98
2023-05-21T13:47:49.244Z,100637.42
2023-05-21T13:50:17.356Z,100634.27
2023-05-21T13:52:46.405Z,100634.33
2023-05-21T13:55:16.199Z,100638.00
2023-05-21T13:57:44.471Z,100645.52
2023-05-21T14:00:15.383Z,100645.45
2023-05-21T14:02:43.851Z,100638.81
2023-05-21T14:05:13.196Z,100640.51
2023-05-21T14:07:42.245Z,100636.80
2023-05-21T14:10:11.124Z,100632.02
2023-05-21T14:12:39.089Z,100640.48
2023-05-21T14:15:07.818Z,100641.06
2023-05-21T14:17:36.160Z,100640.60
2023-05-21T14:20:04.160Z,100635.44
2023-05-21T14:22:32.058Z,100640.53
2023-05-21T14:25:00.048Z,100636.54
2023-05-21T14:27:27.884Z,100638.83
2023-05-21T14:29:55.661Z,100637.21
2023-05-21T14:32:24.217Z,100636.75
2023-05-21T14:34:52.126Z,100635.27
2023-05-21T14:37:19.906Z,100636.52
2023-05-21T14:39:48.084Z,100635.86
2023-05-21T14:42:16.065Z,100633.83
2023-05-21T14:44:43.961Z,100631.43
2023-05-21T14:47:11.978Z,100635.95
2023-05-21T14:49:39.777Z,100634.00
2023-05-21T14:52:07.658Z,100634.19
2023-05-21T14:54:36.474Z,100633.05
2023-05-21T14:57:04.349Z,100631.02
2023-05-21T14:59:32.212Z,100626.73
2023-05-21T15:02:00.360Z,100622.29
2023-05-21T15:04:28.435Z,100619.01
2023-05-21T15:06:56.151Z,100614.33
2023-05-21T15:09:24.500Z,100612.66
2023-05-21T15:11:53.567Z,100612.54
2023-05-21T15:14:21.554Z,100613.81
2023-05-21T15:16:49.529Z,100612.72
2023-05-21T15:19:17.628Z,100612.79
2023-05-21T15:21:45.491Z,100610.91
2023-05-21T15:24:13.254Z,100617.46
2023-05-21T15:26:41.179Z,100613.61
2023-05-21T15:29:09.191Z,100613.39
2023-05-21T15:31:37.539Z,100609.67
2023-05-21T15:34:05.664Z,100603.89
2023-05-21T15:36:33.547Z,100602.96
2023-05-21T15:39:03.799Z,100603.16
2023-05-21T15:41:35.435Z,100601.67
2023-05-21T15:44:03.539Z,100600.88
2023-05-21T15:46:31.829Z,100601.99
2023-05-21T15:48:59.950Z,100600.58
2023-05-21T15:51:27.977Z,100599.22
2023-05-21T15:53:56.104Z,100600.53
2023-05-21T15:56:24.018Z,100600.17
2023-05-21T15:58:52.219Z,100598.89
2023-05-21T16:01:20.089Z,100596.61
2023-05-21T16:03:48.184Z,100603.63
2023-05-21T16:06:16.233Z,100602.30
2023-05-21T16:08:44.234Z,100601.05
2023-05-21T16:11:12.497Z,100602.67
2023-05-21T16:13:41.230Z,100600.86
2023-05-21T16:16:09.138Z,100600.44
2023-05-21T16:18:37.852Z,100596.55
2023-05-21T16:21:05.680Z,100594.39
2023-05-21T16:23:34.476Z,100596.46
2023-05-21T16:26:02.320Z,100596.59
2023-05-21T16:28:30.312Z,100598.61
2023-05-21T16:30:58.344Z,100597.63
2023-05-21T16:33:26.444Z,100595.81
2023-05-21T16:35:54.555Z,100593.08
2023-05-21T16:38:22.614Z,100589.84
2023-05-21T16:40:50.672Z,100591.14
2023-05-21T16:43:18.471Z,100592.84
2023-05-21T16:45:47.366Z,100592.95
2023-05-21T16:48:16.423Z,100594.45
2023-05-21T16:50:44.430Z,100592.29
2023-05-21T16:53:12.897Z,100591.84
2023-05-21T16:55:40.687Z,100593.98
2023-05-21T16:58:09.600Z,100595.47
2023-05-21T17:00:37.784Z,100598.20
2023-05-21T17:03:05.899Z,100602.33
2023-05-21T17:05:34.746Z,100601.55
2023-05-21T17:08:02.999Z,100606.91
2023-05-21T17:10:33.039Z,100605.99
2023-05-21T17:13:09.640Z,100607.65
2023-05-21T17:15:45.986Z,100609.54
2023-05-21T17:18:14.131Z,100610.87
2023-05-21T17:20:43.997Z,100616.17
2023-05-21T17:23:12.442Z,100616.13
2023-05-21T17:25:41.096Z,100618.38
2023-05-21T17:28:09.532Z,100619.34
2023-05-21T17:30:37.455Z,100618.21
2023-05-21T17:33:06.746Z,100617.66
2023-05-21T17:35:34.800Z,100616.84
2023-05-21T17:38:03.173Z,100617.46
2023-05-21T17:40:31.109Z,100614.75
2023-05-21T17:42:59.167Z,100612.14
2023-05-21T17:45:27.017Z,100609.96
2023-05-21T17:47:56.141Z,100610.20
2023-05-21T17:50:26.292Z,100610.06
2023-05-21T17:52:54.194Z,100612.31
2023-05-21T17:55:21.962Z,100614.86
2023-05-21T17:57:49.871Z,100614.04
2023-05-21T18:00:17.995Z,100617.27
2023-05-21T18:02:46.029Z,100617.14
2023-05-21T18:05:13.951Z,100619.45
2023-05-21T18:07:41.812Z,100620.94
2023-05-21T18:10:10.014Z,100624.17
2023-05-21T18:12:38.009Z,100628.20
2023-05-21T18:15:06.681Z,100629.50
2023-05-21T18:17:34.996Z,100629.36
2023-05-21T18:20:04.544Z,100632.88
2023-05-21T18:22:32.648Z,100636.53
2023-05-21T18:25:00.451Z,100640.36
2023-05-21T18:27:28.586Z,100639.83
2023-05-21T18:29:57.031Z,100640.06
2023-05-21T18:32:25.208Z,100638.67
2023-05-21T18:34:53.220Z,100638.96
2023-05-21T18:37:21.855Z,100638.11
2023-05-21T18:39:49.760Z,100633.79
2023-05-21T18:42:17.706Z,100633.72
2023-05-21T18:44:46.617Z,100631.80
2023-05-21T18:47:14.505Z,100629.55
2023-05-21T18:49:42.639Z,100630.10
2023-05-21T18:52:10.867Z,100631.48
2023-05-21T18:54:38.799Z,100634.80
2023-05-21T18:57:06.634Z,100637.04
2023-05-21T18:59:34.400Z,100639.48
2023-05-21T19:02:03.572Z,100642.11
2023-05-21T19:04:32.145Z,100646.36
2023-05-21T19:07:00.533Z,100648.70
2023-05-21T19:09:28.786Z,100650.44
2023-05-21T19:11:57.558Z,100648.85
2023-05-21T19:14:25.721Z,100649.58
2023-05-21T19:16:53.487Z,100651.14
2023-05-21T19:19:21.741Z,100649.42
2023-05-21T19:21:49.767Z,100652.80
2023-05-21T19:24:17.790Z,100655.63
2023-05-21T19:26:45.816Z,100650.14
2023-05-21T19:29:13.610Z,100655.66
2023-05-21T19:31:42.958Z,100653.70
2023-05-21T19:34:11.032Z,100652.38
2023-05-21T19:36:52.372Z,100651.01
2023-05-21T19:39:21.657Z,100646.82
2023-05-21T19:41:49.554Z,100645.39
2023-05-21T19:44:17.569Z,100645.40
2023-05-21T19:46:45.523Z,100645.43
2023-05-21T19:49:16.083Z,100646.27
2023-05-21T19:51:44.223Z,100647.30
2023-05-21T19:54:12.066Z,100650.95
2023-05-21T19:56:40.204Z,100647.91
2023-05-21T19:59:08.097Z,100648.43
2023-05-21T20:01:39.432Z,100642.34
2023-05-21T20:04:07.967Z,100644.09
2023-05-21T20:06:36.259Z,100639.66
2023-05-21T20:09:05.389Z,100640.98
2023-05-21T20:11:33.778Z,100636.27
2023-05-21T20:14:02.363Z,100640.44
2023-05-21T20:16:30.651Z,100640.56
2023-05-21T20:18:58.801Z,100635.35
2023-05-21T20:21:26.917Z,100631.14
2023-05-21T20:23:54.987Z,100634.81
2023-05-21T20:26:23.376Z,100633.89
2023-05-21T20:28:51.168Z,100627.82
2023-05-21T20:31:19.246Z,100627.08
2023-05-21T20:33:50.893Z,100628.67
2023-05-21T20:36:21.396Z,100626.60
2023-05-21T20:38:49.142Z,100629.55
2023-05-21T20:41:17.350Z,100633.27
2023-05-21T20:43:45.533Z,100631.92
2023-05-21T20:46:13.762Z,100632.96
2023-05-21T20:48:41.873Z,100631.41
2023-05-21T20:51:09.979Z,100633.67
2023-05-21T20:53:37.938Z,100633.39
2023-05-21T20:56:08.639Z,100633.45
2023-05-21T20:58:36.960Z,100633.49
2023-05-21T21:01:04.964Z,100633.50
2023-05-21T21:03:34.426Z,100631.20
2023-05-21T21:06:03.368Z,100633.00
2023-05-21T21:08:31.611Z,100631.27
2023-05-21T21:10:59.712Z,100628.48
2023-05-21T21:13:27.658Z,100627.62
2023-05-21T21:15:55.812Z,100629.10
2023-05-21T21:18:23.748Z,100629.61
2023-05-21T21:20:51.597Z,100629.71
2023-05-21T21:23:20.110Z,100628.70
2023-05-21T21:25:48.050Z,100626.94
2023-05-21T21:28:16.000Z,100630.02
2023-05-21T21:30:44.481Z,100634.02
2023-05-21T21:33:14.500Z,100632.11
2023-05-21T21:35:42.745Z,100637.11
2023-05-21T21:38:10.791Z,100635.75
2023-05-21T21:40:38.935Z,100637.64
2023-05-21T21:43:06.999Z,100642.66
2023-05-21T21:45:34.861Z,100643.80
2023-05-21T21:48:02.929Z,100641.62
2023-05-21T21:50:30.800Z,100640.85
2023-05-21T21:53:00.103Z,100641.57
2023-05-21T21:55:29.841Z,100645.10
2023-05-21T21:57:57.771Z,100646.87
2023-05-21T22:00:26.877Z,100651.22
2023-05-21T22:02:54.900Z,100653.22
2023-05-21T22:05:22.732Z,100652.00
2023-05-21T22:07:51.464Z,100657.73
2023-05-21T22:10:19.543Z,100658.11
2023-05-21T22:12:47.542Z,100656.75
2023-05-21T22:15:20.500Z,100659.70
2023-05-21T22:17:52.168Z,100659.30
2023-05-21T22:20:22.211Z,100656.73
2023-05-21T22:22:50.257Z,100659.39
2023-05-21T22:25:18.193Z,100658.50
2023-05-21T22:27:46.478Z,100657.56
2023-05-21T22:30:14.429Z,100656.74
2023-05-21T22:32:42.190Z,100659.86
2023-05-21T22:35:10.355Z,100658.27
2023-05-21T22:37:38.784Z,100656.85
2023-05-21T22:40:07.102Z,100656.01
2023-05-21T22:42:36.547Z,100656.64
2023-05-21T22:45:04.957Z,100652.58
2023-05-21T22:47:32.850Z,100652.96
2023-05-21T22:50:01.653Z,100652.02
2023-05-21T22:52:29.482Z,100655.52
2023-05-21T22:54:58.950Z,100658.27
2023-05-21T22:57:27.697Z,100656.08
2023-05-21T22:59:56.088Z,100657.88
2023-05-21T23:02:23.988Z,100657.21
2023-05-21T23:04:52.236Z,100659.42
2023-05-21T23:07:20.117Z,100660.80
2023-05-21T23:09:48.013Z,100664.55
2023-05-21T23:12:16.418Z,100660.77
2023-05-21T23:14:44.337Z,100660.00
2023-05-21T23:17:12.105Z,100655.61
2023-05-21T23:19:40.402Z,100655.45
2023-05-21T23:22:08.332Z,100654.14
2023-05-21T23:24:36.489Z,100654.90
2023-05-21T23:27:07.198Z,100653.88
2023-05-21T23:29:35.203Z,100651.58
2023-05-21T23:32:05.347Z,100648.58
2023-05-21T23:34:33.544Z,100648.05
2023-05-21T23:37:01.422Z,100651.05
2023-05-21T23:39:29.279Z,100648.80
2023-05-21T23:41:57.430Z,100651.68
2023-05-21T23:44:25.466Z,100649.95
2023-05-21T23:46:53.233Z,100652.75
2023-05-21T23:49:21.321Z,100647.66
2023-05-21T23:51:50.834Z,100650.18
2023-05-21T23:54:18.908Z,100647.02
2023-05-21T23:56:47.044Z,100649.77
2023-05-21T23:59:16.248Z,100647.73
